createdAt,value
2019-03-02T00:00:23.419Z,2.90
2019-03-02T00:02:51.867Z,2.90
2019-03-02T00:05:20.910Z,2.90
2019-03-02T00:07:50.466Z,2.90
2019-03-02T00:10:18.914Z,2.80
2019-03-02T00:12:47.337Z,2.90
2019-03-02T00:15:15.775Z,2.80
2019-03-02T00:17:44.199Z,2.80
2019-03-02T00:20:14.732Z,2.80
2019-03-02T00:22:43.447Z,2.80
2019-03-02T00:25:13.023Z,2.80
2019-03-02T00:27:41.481Z,2.90
2019-03-02T00:30:12.356Z,2.90
2019-03-02T00:32:41.531Z,2.90
2019-03-02T00:35:11.011Z,2.90
2019-03-02T00:37:39.541Z,2.80
2019-03-02T00:40:09.997Z,2.90
2019-03-02T00:42:38.857Z,2.80
2019-03-02T00:45:15.360Z,2.80
2019-03-02T00:47:44.215Z,2.80
2019-03-02T00:50:12.866Z,2.80
2019-03-02T00:52:41.409Z,2.80
2019-03-02T00:55:10.576Z,2.80
2019-03-02T00:57:39.015Z,2.80
2019-03-02T01:00:15.291Z,2.80
2019-03-02T01:02:44.766Z,2.80
2019-03-02T01:05:13.534Z,2.70
2019-03-02T01:07:41.937Z,2.70
2019-03-02T01:10:14.977Z,2.60
2019-03-02T01:12:43.845Z,2.60
2019-03-02T01:15:17.031Z,2.60
2019-03-02T01:17:45.473Z,2.60
2019-03-02T01:20:14.853Z,2.60
2019-03-02T01:22:43.489Z,2.60
2019-03-02T01:25:14.493Z,2.60
2019-03-02T01:27:43.108Z,2.60
2019-03-02T01:30:16.322Z,2.60
2019-03-02T01:32:44.798Z,2.60
2019-03-02T01:35:16.489Z,2.60
2019-03-02T01:37:44.116Z,2.60
2019-03-02T01:40:15.457Z,2.60
2019-03-02T01:42:43.889Z,2.60
2019-03-02T01:45:18.421Z,2.60
2019-03-02T01:47:50.455Z,2.60
2019-03-02T01:50:17.866Z,2.50
2019-03-02T01:52:47.765Z,2.50
2019-03-02T01:55:16.580Z,2.50
2019-03-02T01:57:45.211Z,2.50
2019-03-02T02:00:23.756Z,2.50
2019-03-02T02:02:52.247Z,2.60
2019-03-02T02:05:20.759Z,2.50
2019-03-02T02:07:53.668Z,2.50
2019-03-02T02:10:19.308Z,2.50
2019-03-02T02:12:47.824Z,2.60
2019-03-02T02:15:22.001Z,2.50
2019-03-02T02:17:53.071Z,2.50
2019-03-02T02:20:20.761Z,2.60
2019-03-02T02:22:49.235Z,2.60
2019-03-02T02:25:21.626Z,2.60
2019-03-02T02:27:50.130Z,2.60
2019-03-02T02:30:24.962Z,2.50
2019-03-02T02:33:02.554Z,2.50
2019-03-02T02:35:25.248Z,2.50
2019-03-02T02:37:53.712Z,2.60
2019-03-02T02:40:22.274Z,2.60
2019-03-02T02:42:50.764Z,2.60
2019-03-02T02:45:20.694Z,2.70
2019-03-02T02:47:52.119Z,2.70
2019-03-02T02:50:28.185Z,2.70
2019-03-02T02:52:50.766Z,2.70
2019-03-02T02:55:19.283Z,2.60
2019-03-02T02:57:47.696Z,2.70
2019-03-02T03:00:18.651Z,2.60
2019-03-02T03:02:47.081Z,2.60
2019-03-02T03:05:17.348Z,2.60
2019-03-02T03:07:52.144Z,2.60
2019-03-02T03:10:29.845Z,2.50
2019-03-02T03:13:02.235Z,2.60
2019-03-02T03:15:38.587Z,2.50
2019-03-02T03:18:12.115Z,2.50
2019-03-02T03:20:37.199Z,2.50
2019-03-02T03:23:05.823Z,2.40
2019-03-02T03:25:34.240Z,2.50
2019-03-02T03:28:02.681Z,2.50
2019-03-02T03:30:36.147Z,2.60
2019-03-02T03:33:02.261Z,2.60
2019-03-02T03:35:31.734Z,2.60
2019-03-02T03:38:00.241Z,2.70
2019-03-02T03:40:28.649Z,2.60
2019-03-02T03:43:02.615Z,2.60
2019-03-02T03:45:28.495Z,2.60
2019-03-02T03:47:57.285Z,2.50
2019-03-02T03:50:25.724Z,2.50
2019-03-02T03:52:54.152Z,2.50
2019-03-02T03:55:24.886Z,2.60
2019-03-02T03:57:55.522Z,2.60
2019-03-02T04:00:23.108Z,2.60
2019-03-02T04:02:51.541Z,2.50
2019-03-02T04:05:20.066Z,2.50
2019-03-02T04:07:49.701Z,2.50
2019-03-02T04:10:24.548Z,2.60
2019-03-02T04:12:48.933Z,2.50
2019-03-02T04:15:17.518Z,2.60
2019-03-02T04:17:45.965Z,2.50
2019-03-02T04:20:17.512Z,2.60
2019-03-02T04:22:46.100Z,2.60
2019-03-02T04:25:17.877Z,2.60
2019-03-02T04:27:53.354Z,2.60
2019-03-02T04:30:15.189Z,2.50
2019-03-02T04:32:43.709Z,2.50
2019-03-02T04:35:12.152Z,2.50
2019-03-02T04:37:40.589Z,2.50
2019-03-02T04:40:10.162Z,2.50
2019-03-02T04:42:38.541Z,2.60
2019-03-02T04:45:11.519Z,2.60
2019-03-02T04:47:39.957Z,2.60
2019-03-02T04:50:09.427Z,2.60
2019-03-02T04:52:37.823Z,2.60
2019-03-02T04:55:13.474Z,2.70
2019-03-02T04:57:43.067Z,2.70
2019-03-02T05:00:17.711Z,2.70
2019-03-02T05:02:46.119Z,2.70
2019-03-02T05:05:14.638Z,2.70
2019-03-02T05:07:43.078Z,2.60
2019-03-02T05:10:11.987Z,2.60
2019-03-02T05:12:40.437Z,2.70
2019-03-02T05:15:15.562Z,2.60
2019-03-02T05:17:42.887Z,2.60
2019-03-02T05:20:12.175Z,2.70
2019-03-02T05:22:40.651Z,2.60
2019-03-02T05:25:15.417Z,2.60
2019-03-02T05:27:42.413Z,2.60
2019-03-02T05:30:15.128Z,2.60
2019-03-02T05:32:43.625Z,2.60
2019-03-02T05:35:15.472Z,2.60
2019-03-02T05:37:42.749Z,2.60
2019-03-02T05:40:12.098Z,2.70
2019-03-02T05:42:40.500Z,2.70
2019-03-02T05:45:13.068Z,2.70
2019-03-02T05:47:42.121Z,2.60
2019-03-02T05:50:12.894Z,2.60
2019-03-02T05:52:41.461Z,2.60
2019-03-02T05:55:14.385Z,2.70
2019-03-02T05:57:41.519Z,2.60
2019-03-02T06:00:12.823Z,2.60
2019-03-02T06:02:41.881Z,2.70
2019-03-02T06:05:10.859Z,2.70
2019-03-02T06:07:39.284Z,2.70
2019-03-02T06:10:10.368Z,2.70
2019-03-02T06:12:38.808Z,2.70
2019-03-02T06:15:14.565Z,2.70
2019-03-02T06:17:43.000Z,2.70
2019-03-02T06:20:12.643Z,2.70
2019-03-02T06:22:41.104Z,2.60
2019-03-02T06:25:20.695Z,2.60
2019-03-02T06:27:48.580Z,2.60
2019-03-02T06:30:19.339Z,2.60
2019-03-02T06:32:47.791Z,2.60
2019-03-02T06:35:16.305Z,2.60
2019-03-02T06:37:44.891Z,2.70
2019-03-02T06:40:16.180Z,2.90
2019-03-02T06:42:45.812Z,2.90
2019-03-02T06:45:16.203Z,2.80
2019-03-02T06:47:44.661Z,2.80
2019-03-02T06:50:17.631Z,2.80
2019-03-02T06:52:46.090Z,2.70
2019-03-02T06:55:15.518Z,2.70
2019-03-02T06:57:48.357Z,2.70
2019-03-02T07:00:19.238Z,2.80
2019-03-02T07:02:47.685Z,2.80
2019-03-02T07:05:16.203Z,2.80
2019-03-02T07:07:44.604Z,2.80
2019-03-02T07:10:17.797Z,2.80
2019-03-02T07:12:46.923Z,2.70
2019-03-02T07:15:17.480Z,2.80
2019-03-02T07:18:02.003Z,2.80
2019-03-02T07:20:37.935Z,2.70
2019-03-02T07:23:06.530Z,2.70
2019-03-02T07:25:36.919Z,2.80
2019-03-02T07:28:05.976Z,2.80
2019-03-02T07:30:35.424Z,2.70
2019-03-02T07:33:04.017Z,2.70
2019-03-02T07:35:32.666Z,2.70
2019-03-02T07:38:01.799Z,2.60
2019-03-02T07:40:30.364Z,2.60
2019-03-02T07:42:58.791Z,2.60
2019-03-02T07:45:27.387Z,2.60
2019-03-02T07:48:00.045Z,2.60
2019-03-02T07:50:29.449Z,2.70
2019-03-02T07:52:56.432Z,2.60
2019-03-02T07:55:24.891Z,2.70
2019-03-02T07:57:53.489Z,2.80
2019-03-02T08:00:22.673Z,3.00
2019-03-02T08:02:51.364Z,3.00
2019-03-02T08:05:19.908Z,3.10
2019-03-02T08:07:48.365Z,3.20
2019-03-02T08:10:16.930Z,3.30
2019-03-02T08:12:45.451Z,3.30
2019-03-02T08:15:23.676Z,3.40
2019-03-02T08:17:50.314Z,3.60
2019-03-02T08:20:20.649Z,3.70
2019-03-02T08:22:49.098Z,3.80
2019-03-02T08:25:17.686Z,3.90
2019-03-02T08:27:46.169Z,3.90
2019-03-02T08:30:19.026Z,4.00
2019-03-02T08:32:47.415Z,4.00
2019-03-02T08:35:16.898Z,4.00
2019-03-02T08:37:45.325Z,3.90
2019-03-02T08:40:19.196Z,3.80
2019-03-02T08:42:47.897Z,3.80
2019-03-02T08:45:17.734Z,3.70
2019-03-02T08:47:46.251Z,3.70
2019-03-02T08:50:20.960Z,3.70
2019-03-02T08:52:49.473Z,3.70
2019-03-02T08:55:19.199Z,3.80
2019-03-02T08:57:47.715Z,3.80
2019-03-02T09:00:23.738Z,3.90
2019-03-02T09:02:55.153Z,4.00
2019-03-02T09:05:26.064Z,4.00
2019-03-02T09:07:52.554Z,4.10
2019-03-02T09:10:21.817Z,4.10
2019-03-02T09:12:50.386Z,4.10
2019-03-02T09:15:26.472Z,4.30
2019-03-02T09:17:56.614Z,4.30
2019-03-02T09:20:23.737Z,4.30
2019-03-02T09:22:52.167Z,4.40
2019-03-02T09:25:23.909Z,4.60
2019-03-02T09:27:51.463Z,4.70
2019-03-02T09:30:22.623Z,4.70
2019-03-02T09:32:55.579Z,4.70
2019-03-02T09:35:24.017Z,4.80
2019-03-02T09:37:52.418Z,4.80
2019-03-02T09:40:25.065Z,4.80
2019-03-02T09:42:53.881Z,4.90
2019-03-02T09:45:22.551Z,4.70
2019-03-02T09:47:52.234Z,4.10
2019-03-02T09:50:22.037Z,3.80
2019-03-02T09:52:51.012Z,3.90
2019-03-02T09:55:20.265Z,4.00
2019-03-02T09:57:49.205Z,4.00
2019-03-02T10:00:28.292Z,4.10
2019-03-02T10:02:56.738Z,4.20
2019-03-02T10:05:26.193Z,4.40
2019-03-02T10:07:55.217Z,4.50
2019-03-02T10:10:25.033Z,4.60
2019-03-02T10:12:53.894Z,4.60
2019-03-02T10:15:29.601Z,4.80
2019-03-02T10:17:58.129Z,5.00
2019-03-02T10:20:26.539Z,5.20
2019-03-02T10:22:54.967Z,5.30
2019-03-02T10:25:26.431Z,5.50
2019-03-02T10:27:56.907Z,5.40
2019-03-02T10:30:26.433Z,5.50
2019-03-02T10:32:57.122Z,5.40
2019-03-02T10:35:25.998Z,5.30
2019-03-02T10:37:54.429Z,5.20
2019-03-02T10:40:23.261Z,5.20
2019-03-02T10:42:51.966Z,5.20
2019-03-02T10:45:21.614Z,5.30
2019-03-02T10:47:50.111Z,5.10
2019-03-02T10:50:25.318Z,5.00
2019-03-02T10:52:53.954Z,5.10
2019-03-02T10:55:23.405Z,5.20
2019-03-02T10:57:51.963Z,5.20
2019-03-02T11:00:28.938Z,5.30
2019-03-02T11:02:57.698Z,5.20
2019-03-02T11:05:44.680Z,5.30
2019-03-02T11:08:21.714Z,5.20
2019-03-02T11:10:55.979Z,5.30
2019-03-02T11:13:40.898Z,5.50
2019-03-02T11:16:10.971Z,5.60
2019-03-02T11:18:49.669Z,5.60
2019-03-02T11:21:35.967Z,5.70
2019-03-02T11:24:14.795Z,5.70
2019-03-02T11:26:50.463Z,5.90
2019-03-02T11:29:22.993Z,5.90
2019-03-02T11:32:11.131Z,5.90
2019-03-02T11:34:52.986Z,5.50
2019-03-02T11:37:28.827Z,5.60
2019-03-02T11:39:58.888Z,5.60
2019-03-02T11:42:34.943Z,5.70
2019-03-02T11:45:08.263Z,5.60
2019-03-02T11:47:38.335Z,5.70
2019-03-02T11:50:14.327Z,5.80
2019-03-02T11:52:45.060Z,5.80
2019-03-02T11:55:15.182Z,5.70
2019-03-02T11:58:04.151Z,5.50
2019-03-02T12:00:37.846Z,5.40
2019-03-02T12:03:08.983Z,5.30
2019-03-02T12:05:55.657Z,5.30
2019-03-02T12:08:28.168Z,5.40
2019-03-02T12:11:10.454Z,5.60
2019-03-02T12:13:44.808Z,5.60
2019-03-02T12:16:17.305Z,5.60
2019-03-02T12:19:05.283Z,5.70
2019-03-02T12:21:47.300Z,5.80
2019-03-02T12:24:23.256Z,5.70
2019-03-02T12:26:59.313Z,5.80
2019-03-02T12:29:32.437Z,5.70
2019-03-02T12:32:17.703Z,5.70
2019-03-02T12:34:47.919Z,5.90
2019-03-02T12:37:17.944Z,5.90
2019-03-02T12:40:04.428Z,5.80
2019-03-02T12:42:34.659Z,5.80
2019-03-02T12:45:08.855Z,5.80
2019-03-02T12:47:41.931Z,5.70
2019-03-02T12:50:14.046Z,5.50
2019-03-02T12:52:51.796Z,5.40
2019-03-02T12:55:36.720Z,5.30
2019-03-02T12:58:23.265Z,5.10
2019-03-02T13:01:01.296Z,5.20
2019-03-02T13:03:47.746Z,5.00
2019-03-02T13:06:20.511Z,4.90
2019-03-02T13:08:50.590Z,4.90
2019-03-02T13:11:32.547Z,5.00
2019-03-02T13:14:05.592Z,4.80
2019-03-02T13:16:45.667Z,4.90
2019-03-02T13:19:28.184Z,4.70
2019-03-02T13:22:07.401Z,4.60
2019-03-02T13:24:49.600Z,4.60
2019-03-02T13:27:37.615Z,4.80
2019-03-02T13:30:19.227Z,4.90
2019-03-02T13:33:01.663Z,5.00
2019-03-02T13:35:47.086Z,4.90
2019-03-02T13:38:30.006Z,4.90
2019-03-02T13:40:58.136Z,5.00
2019-03-02T13:43:30.835Z,5.10
2019-03-02T13:46:06.703Z,5.20
2019-03-02T13:48:58.202Z,5.20
2019-03-02T13:51:39.010Z,5.20
2019-03-02T13:54:14.797Z,5.30
2019-03-02T13:56:44.886Z,5.20
2019-03-02T13:59:17.659Z,5.10
2019-03-02T14:01:47.757Z,5.10
2019-03-02T14:04:33.144Z,5.20
2019-03-02T14:07:09.300Z,5.20
2019-03-02T14:09:57.734Z,5.20
2019-03-02T14:12:27.867Z,5.20
2019-03-02T14:15:03.692Z,5.20
2019-03-02T14:17:51.529Z,5.30
2019-03-02T14:20:37.061Z,5.40
2019-03-02T14:23:09.904Z,5.30
2019-03-02T14:25:45.668Z,5.30
2019-03-02T14:28:34.875Z,5.30
2019-03-02T14:31:08.016Z,5.30
2019-03-02T14:33:38.089Z,5.40
2019-03-02T14:36:08.176Z,5.40
2019-03-02T14:38:38.244Z,5.40
2019-03-02T14:41:13.972Z,5.30
2019-03-02T14:43:44.040Z,5.30
2019-03-02T14:46:30.352Z,5.30
2019-03-02T14:49:01.135Z,5.20
2019-03-02T14:51:47.035Z,5.10
2019-03-02T14:54:32.155Z,5.10
2019-03-02T14:57:07.976Z,5.00
2019-03-02T14:59:38.045Z,5.00
2019-03-02T15:02:25.741Z,4.90
2019-03-02T15:04:56.683Z,5.00
2019-03-02T15:07:30.014Z,4.90
2019-03-02T15:10:00.162Z,4.90
2019-03-02T15:12:30.299Z,5.00
2019-03-02T15:15:09.120Z,5.00
2019-03-02T15:17:39.191Z,5.00
2019-03-02T15:20:14.887Z,5.00
2019-03-02T15:22:44.987Z,5.10
2019-03-02T15:25:17.991Z,5.10
2019-03-02T15:27:57.435Z,5.10
2019-03-02T15:30:44.103Z,5.10
2019-03-02T15:33:20.116Z,5.20
2019-03-02T15:35:56.440Z,5.10
2019-03-02T15:38:26.574Z,5.10
2019-03-02T15:40:59.332Z,5.10
2019-03-02T15:43:38.139Z,5.20
2019-03-02T15:46:10.665Z,5.20
2019-03-02T15:48:40.836Z,5.30
2019-03-02T15:51:16.849Z,5.30
2019-03-02T15:53:52.878Z,5.30
2019-03-02T15:56:23.410Z,5.30
2019-03-02T15:58:59.569Z,5.30
2019-03-02T16:01:34.103Z,5.20
2019-03-02T16:04:16.164Z,5.20
2019-03-02T16:06:46.215Z,5.20
2019-03-02T16:09:29.060Z,5.20
2019-03-02T16:12:04.134Z,5.20
2019-03-02T16:14:48.499Z,5.20
2019-03-02T16:17:18.564Z,5.20
2019-03-02T16:20:06.400Z,5.20
2019-03-02T16:22:47.507Z,5.20
2019-03-02T16:25:35.821Z,5.20
2019-03-02T16:28:11.646Z,5.20
2019-03-02T16:30:59.512Z,5.10
2019-03-02T16:33:35.323Z,5.10
2019-03-02T16:36:11.215Z,5.10
2019-03-02T16:38:41.320Z,5.10
2019-03-02T16:41:11.395Z,5.10
2019-03-02T16:43:41.492Z,5.10
2019-03-02T16:46:20.401Z,5.10
2019-03-02T16:48:56.204Z,5.20
2019-03-02T16:51:29.749Z,5.20
2019-03-02T16:53:58.653Z,5.10
2019-03-02T16:56:37.911Z,5.10
2019-03-02T16:59:14.718Z,5.10
2019-03-02T17:01:57.723Z,5.10
2019-03-02T17:04:29.105Z,5.00
2019-03-02T17:07:01.760Z,5.00
2019-03-02T17:09:31.864Z,5.00
2019-03-02T17:12:08.348Z,5.10
2019-03-02T17:14:41.990Z,5.00
2019-03-02T17:17:11.986Z,5.00
2019-03-02T17:19:51.928Z,5.00
2019-03-02T17:22:25.017Z,5.10
2019-03-02T17:24:58.469Z,5.10
2019-03-02T17:27:46.919Z,5.10
2019-03-02T17:30:24.991Z,5.10
2019-03-02T17:32:59.075Z,5.10
2019-03-02T17:35:30.103Z,5.10
2019-03-02T17:38:12.164Z,5.10
2019-03-02T17:41:07.270Z,5.10
2019-03-02T17:43:47.673Z,5.10
2019-03-02T17:46:23.883Z,5.10
2019-03-02T17:49:10.644Z,5.10
2019-03-02T17:51:40.791Z,5.10
2019-03-02T17:54:13.854Z,5.10
2019-03-02T17:56:47.036Z,5.10
2019-03-02T17:59:17.105Z,5.10
2019-03-02T18:01:47.168Z,5.10
2019-03-02T18:04:23.067Z,5.10
2019-03-02T18:06:59.329Z,5.10
2019-03-02T18:09:28.010Z,5.10
2019-03-02T18:12:14.359Z,5.10
2019-03-02T18:14:44.495Z,5.10
2019-03-02T18:17:15.232Z,5.10
2019-03-02T18:19:44.756Z,5.10
2019-03-02T18:22:13.151Z,5.10
2019-03-02T18:24:41.629Z,5.10
2019-03-02T18:27:10.109Z,5.10
2019-03-02T18:29:38.511Z,5.10
2019-03-02T18:32:07.004Z,5.10
2019-03-02T18:34:35.502Z,5.10
2019-03-02T18:37:05.921Z,5.20
2019-03-02T18:39:34.136Z,5.20
2019-03-02T18:42:02.632Z,5.20
2019-03-02T18:44:31.109Z,5.10
2019-03-02T18:47:00.672Z,5.20
2019-03-02T18:49:33.720Z,5.20
2019-03-02T18:52:09.826Z,5.20
2019-03-02T18:54:38.255Z,5.20
2019-03-02T18:57:09.803Z,5.20
2019-03-02T18:59:39.874Z,5.30
2019-03-02T19:02:11.744Z,5.20
2019-03-02T19:04:38.517Z,5.30
2019-03-02T19:07:07.190Z,5.30
2019-03-02T19:09:35.605Z,5.30
2019-03-02T19:12:04.184Z,5.30
2019-03-02T19:14:32.603Z,5.30
2019-03-02T19:17:01.024Z,5.30
2019-03-02T19:19:29.439Z,5.30
2019-03-02T19:21:57.889Z,5.30
2019-03-02T19:24:26.350Z,5.30
2019-03-02T19:26:54.757Z,5.30
2019-03-02T19:29:23.215Z,5.30
2019-03-02T19:31:51.623Z,5.30
2019-03-02T19:34:20.042Z,5.30
2019-03-02T19:36:48.467Z,5.40
2019-03-02T19:39:20.055Z,5.40
2019-03-02T19:41:48.459Z,5.40
2019-03-02T19:44:16.891Z,5.40
2019-03-02T19:46:45.313Z,5.50
2019-03-02T19:49:13.814Z,5.50
2019-03-02T19:51:42.251Z,5.50
2019-03-02T19:54:10.683Z,5.50
2019-03-02T19:56:39.150Z,5.50
2019-03-02T19:59:07.603Z,5.50
2019-03-02T20:01:36.063Z,5.50
2019-03-02T20:04:04.848Z,5.40
2019-03-02T20:06:33.276Z,5.40
2019-03-02T20:09:01.706Z,5.30
2019-03-02T20:11:30.140Z,5.20
2019-03-02T20:13:58.569Z,5.20
2019-03-02T20:16:26.997Z,5.30
2019-03-02T20:18:55.422Z,5.30
2019-03-02T20:21:23.865Z,5.30
2019-03-02T20:23:52.310Z,5.40
2019-03-02T20:26:20.793Z,5.50
2019-03-02T20:28:49.248Z,5.50
2019-03-02T20:31:17.663Z,5.50
2019-03-02T20:33:46.115Z,5.50
2019-03-02T20:36:14.572Z,5.60
2019-03-02T20:38:43.041Z,5.60
2019-03-02T20:41:11.527Z,5.70
2019-03-02T20:43:39.974Z,5.70
2019-03-02T20:46:08.400Z,5.70
2019-03-02T20:48:36.851Z,5.70
2019-03-02T20:51:05.342Z,5.70
2019-03-02T20:53:33.797Z,5.70
2019-03-02T20:56:02.245Z,5.70
2019-03-02T20:58:30.671Z,5.70
2019-03-02T21:00:59.980Z,5.70
2019-03-02T21:03:28.411Z,5.70
2019-03-02T21:05:56.901Z,5.70
2019-03-02T21:08:25.301Z,5.60
2019-03-02T21:10:53.741Z,5.60
2019-03-02T21:13:22.163Z,5.60
2019-03-02T21:15:50.660Z,5.60
2019-03-02T21:18:19.079Z,5.60
2019-03-02T21:20:47.747Z,5.60
2019-03-02T21:23:16.296Z,5.60
2019-03-02T21:25:44.767Z,5.70
2019-03-02T21:28:13.227Z,5.70
2019-03-02T21:30:41.739Z,5.70
2019-03-02T21:33:12.006Z,5.70
2019-03-02T21:35:40.305Z,5.80
2019-03-02T21:38:08.757Z,5.80
2019-03-02T21:40:37.235Z,5.70
2019-03-02T21:43:05.660Z,5.70
2019-03-02T21:45:34.361Z,5.70
2019-03-02T21:48:02.882Z,5.70
2019-03-02T21:50:39.333Z,5.70
2019-03-02T21:53:07.780Z,5.70
2019-03-02T21:55:36.205Z,5.70
2019-03-02T21:58:04.788Z,5.70
2019-03-02T22:00:33.243Z,5.70
2019-03-02T22:03:01.688Z,5.80
2019-03-02T22:05:30.135Z,5.80
2019-03-02T22:07:58.575Z,5.80
2019-03-02T22:10:30.076Z,5.80
2019-03-02T22:12:58.547Z,5.80
2019-03-02T22:15:26.951Z,5.90
2019-03-02T22:17:56.615Z,5.80
2019-03-02T22:20:25.039Z,5.80
2019-03-02T22:22:53.481Z,5.80
2019-03-02T22:25:23.508Z,5.80
2019-03-02T22:27:51.917Z,5.80
2019-03-02T22:30:22.870Z,5.80
2019-03-02T22:32:51.356Z,5.80
2019-03-02T22:35:19.803Z,5.80
2019-03-02T22:37:48.191Z,5.80
2019-03-02T22:40:19.143Z,5.80
2019-03-02T22:42:47.540Z,5.80
2019-03-02T22:45:19.048Z,5.80
2019-03-02T22:47:47.463Z,5.70
2019-03-02T22:50:18.963Z,5.80
2019-03-02T22:52:48.225Z,5.80
2019-03-02T22:55:17.213Z,5.70
2019-03-02T22:57:45.703Z,5.70
2019-03-02T23:00:29.163Z,5.70
2019-03-02T23:02:56.591Z,5.70
2019-03-02T23:05:25.151Z,5.80
2019-03-02T23:07:53.839Z,5.70
2019-03-02T23:10:22.309Z,5.80
2019-03-02T23:12:50.710Z,5.70
2019-03-02T23:15:28.291Z,5.80
2019-03-02T23:17:56.720Z,5.80
2019-03-02T23:20:25.159Z,5.80
2019-03-02T23:22:53.617Z,5.80
2019-03-02T23:25:22.039Z,5.80
2019-03-02T23:27:50.494Z,5.80
2019-03-02T23:30:24.311Z,5.80
2019-03-02T23:32:53.923Z,5.80
2019-03-02T23:35:22.590Z,5.70
2019-03-02T23:37:51.011Z,5.80
2019-03-02T23:40:20.942Z,5.80
2019-03-02T23:42:49.392Z,5.80
2019-03-02T23:45:18.628Z,5.80
2019-03-02T23:47:47.199Z,5.80
2019-03-02T23:50:15.735Z,5.90
2019-03-02T23:52:44.257Z,5.80
2019-03-02T23:55:13.881Z,5.90
2019-03-02T23:57:42.449Z,5.90
